createdAt,value
2023-05-14T00:00:27.075Z,99031.90
2023-05-14T00:03:14.458Z,99033.05
2023-05-14T00:05:41.756Z,99029.84
2023-05-14T00:08:09.040Z,99029.54
2023-05-14T00:10:36.270Z,99030.31
2023-05-14T00:13:03.223Z,99029.48
2023-05-14T00:15:31.302Z,99026.75
2023-05-14T00:18:00.152Z,99020.48
2023-05-14T00:20:27.411Z,99014.48
2023-05-14T00:22:54.514Z,99021.46
2023-05-14T00:25:21.612Z,99022.52
2023-05-14T00:27:48.716Z,99017.96
2023-05-14T00:30:15.838Z,99015.46
2023-05-14T00:32:43.046Z,99020.78
2023-05-14T00:35:10.071Z,99022.02
2023-05-14T00:37:37.131Z,99021.09
2023-05-14T00:40:06.599Z,99019.64
2023-05-14T00:42:34.466Z,99022.19
2023-05-14T00:45:01.616Z,99024.39
2023-05-14T00:47:28.664Z,99021.16
2023-05-14T00:49:55.809Z,99016.22
2023-05-14T00:52:22.840Z,99018.11
2023-05-14T00:54:50.395Z,99020.31
2023-05-14T00:57:18.273Z,99022.07
2023-05-14T00:59:45.357Z,99022.71
2023-05-14T01:02:12.396Z,99020.84
2023-05-14T01:04:40.041Z,99018.76
2023-05-14T01:07:25.923Z,99018.72
2023-05-14T01:10:09.235Z,99024.87
2023-05-14T01:12:50.727Z,99020.52
2023-05-14T01:15:31.182Z,99018.77
2023-05-14T01:18:08.236Z,99023.86
2023-05-14T01:20:36.244Z,99019.64
2023-05-14T01:23:03.236Z,99016.96
2023-05-14T01:25:31.268Z,99010.86
2023-05-14T01:28:04.258Z,99011.91
2023-05-14T01:30:37.144Z,99009.08
2023-05-14T01:33:12.175Z,99009.29
2023-05-14T01:35:40.452Z,99005.26
2023-05-14T01:38:11.111Z,99004.41
2023-05-14T01:40:39.013Z,99002.21
2023-05-14T01:43:06.657Z,98998.98
2023-05-14T01:45:36.835Z,98994.75
2023-05-14T01:48:05.537Z,98996.94
2023-05-14T01:50:32.901Z,98997.80
2023-05-14T01:53:00.161Z,98995.38
2023-05-14T01:55:27.632Z,98989.83
2023-05-14T01:57:54.852Z,98991.27
2023-05-14T02:00:23.804Z,98990.83
2023-05-14T02:02:51.268Z,98992.83
2023-05-14T02:05:18.920Z,98990.52
2023-05-14T02:07:46.781Z,98988.98
2023-05-14T02:10:14.041Z,98990.95
2023-05-14T02:12:41.195Z,98991.27
2023-05-14T02:15:10.511Z,98991.93
2023-05-14T02:17:38.311Z,98990.95
2023-05-14T02:20:06.587Z,98993.77
2023-05-14T02:22:33.600Z,98988.89
2023-05-14T02:25:00.862Z,98985.88
2023-05-14T02:27:28.369Z,98980.72
2023-05-14T02:30:00.179Z,98982.16
2023-05-14T02:32:27.963Z,98983.23
2023-05-14T02:34:55.216Z,98984.77
2023-05-14T02:37:22.386Z,98976.15
2023-05-14T02:39:49.523Z,98981.54
2023-05-14T02:42:16.673Z,98982.47
2023-05-14T02:44:43.726Z,98982.89
2023-05-14T02:47:11.404Z,98978.96
2023-05-14T02:49:38.354Z,98982.27
2023-05-14T02:52:05.920Z,98979.34
2023-05-14T02:54:33.169Z,98977.84
2023-05-14T02:57:00.332Z,98982.35
2023-05-14T02:59:27.699Z,98979.20
2023-05-14T03:01:55.400Z,98977.73
2023-05-14T03:04:23.335Z,98974.24
2023-05-14T03:06:50.795Z,98974.00
2023-05-14T03:09:17.852Z,98971.30
2023-05-14T03:11:44.895Z,98973.16
2023-05-14T03:14:12.060Z,98971.40
2023-05-14T03:16:41.750Z,98970.74
2023-05-14T03:19:09.448Z,98972.14
2023-05-14T03:21:36.588Z,98973.63
2023-05-14T03:24:03.955Z,98971.11
2023-05-14T03:26:31.006Z,98970.73
2023-05-14T03:28:58.052Z,98961.77
2023-05-14T03:31:25.856Z,98960.41
2023-05-14T03:33:52.980Z,98957.81
2023-05-14T03:36:20.342Z,98959.58
2023-05-14T03:38:48.021Z,98964.25
2023-05-14T03:41:17.410Z,98959.02
2023-05-14T03:43:44.468Z,98955.16
2023-05-14T03:46:11.724Z,98956.46
2023-05-14T03:48:39.033Z,98955.00
2023-05-14T03:51:06.238Z,98952.59
2023-05-14T03:53:34.828Z,98953.80
2023-05-14T03:56:02.009Z,98950.16
2023-05-14T03:58:29.051Z,98952.91
2023-05-14T04:00:56.231Z,98955.77
2023-05-14T04:03:23.335Z,98962.14
2023-05-14T04:05:51.116Z,98965.41
2023-05-14T04:08:18.170Z,98961.53
2023-05-14T04:10:45.219Z,98959.86
2023-05-14T04:13:12.400Z,98954.96
2023-05-14T04:15:40.373Z,98957.25
2023-05-14T04:18:07.929Z,98959.02
2023-05-14T04:20:35.279Z,98959.89
2023-05-14T04:23:02.415Z,98957.77
2023-05-14T04:25:30.096Z,98963.10
2023-05-14T04:27:58.273Z,98965.06
2023-05-14T04:30:26.048Z,98969.25
2023-05-14T04:32:53.232Z,98973.77
2023-05-14T04:35:23.287Z,98974.92
2023-05-14T04:37:51.807Z,98975.29
2023-05-14T04:40:19.065Z,98975.89
2023-05-14T04:42:46.049Z,98979.13
2023-05-14T04:45:14.132Z,98985.85
2023-05-14T04:47:41.252Z,98982.92
2023-05-14T04:50:09.362Z,98982.36
2023-05-14T04:52:36.542Z,98982.00
2023-05-14T04:55:04.147Z,98976.95
2023-05-14T04:57:31.094Z,98978.58
2023-05-14T04:59:58.044Z,98972.36
2023-05-14T05:02:25.540Z,98972.38
2023-05-14T05:04:52.770Z,98971.01
2023-05-14T05:07:19.937Z,98966.65
2023-05-14T05:09:47.084Z,98970.73
2023-05-14T05:12:14.131Z,98970.95
2023-05-14T05:14:41.309Z,98969.70
2023-05-14T05:17:08.443Z,98962.12
2023-05-14T05:19:43.289Z,98959.51
2023-05-14T05:22:11.759Z,98958.08
2023-05-14T05:24:39.125Z,98951.89
2023-05-14T05:27:06.298Z,98950.47
2023-05-14T05:29:34.771Z,98952.14
2023-05-14T05:32:02.229Z,98951.14
2023-05-14T05:34:29.502Z,98947.10
2023-05-14T05:36:56.735Z,98946.55
2023-05-14T05:39:24.003Z,98946.00
2023-05-14T05:41:51.180Z,98942.30
2023-05-14T05:44:18.245Z,98936.95
2023-05-14T05:46:45.531Z,98936.29
2023-05-14T05:49:12.622Z,98927.20
2023-05-14T05:51:39.789Z,98929.98
2023-05-14T05:54:07.036Z,98926.20
2023-05-14T05:56:34.188Z,98924.44
2023-05-14T05:59:01.646Z,98926.73
2023-05-14T06:01:28.908Z,98921.69
2023-05-14T06:03:56.684Z,98920.03
2023-05-14T06:06:23.738Z,98916.30
2023-05-14T06:08:50.990Z,98909.41
2023-05-14T06:11:18.153Z,98907.95
2023-05-14T06:13:45.192Z,98909.41
2023-05-14T06:16:12.213Z,98908.34
2023-05-14T06:18:39.324Z,98908.09
2023-05-14T06:21:06.360Z,98905.74
2023-05-14T06:23:33.326Z,98911.63
2023-05-14T06:26:00.689Z,98907.73
2023-05-14T06:28:28.024Z,98906.20
2023-05-14T06:30:55.393Z,98906.69
2023-05-14T06:33:30.220Z,98902.16
2023-05-14T06:36:03.045Z,98898.54
2023-05-14T06:38:30.362Z,98897.81
2023-05-14T06:40:57.528Z,98900.08
2023-05-14T06:43:24.782Z,98899.85
2023-05-14T06:45:52.445Z,98897.73
2023-05-14T06:48:20.218Z,98893.70
2023-05-14T06:50:48.705Z,98892.11
2023-05-14T06:53:16.191Z,98889.21
2023-05-14T06:55:43.544Z,98892.13
2023-05-14T06:58:10.590Z,98890.03
2023-05-14T07:00:37.733Z,98893.66
2023-05-14T07:03:05.066Z,98886.32
2023-05-14T07:05:32.037Z,98882.59
2023-05-14T07:07:59.298Z,98878.80
2023-05-14T07:10:26.573Z,98875.96
2023-05-14T07:12:53.907Z,98877.77
2023-05-14T07:15:21.071Z,98871.52
2023-05-14T07:17:48.651Z,98873.02
2023-05-14T07:20:15.692Z,98866.73
2023-05-14T07:22:42.951Z,98869.29
2023-05-14T07:25:10.202Z,98864.64
2023-05-14T07:27:37.151Z,98858.52
2023-05-14T07:30:04.926Z,98857.23
2023-05-14T07:32:32.201Z,98858.42
2023-05-14T07:34:59.646Z,98855.98
2023-05-14T07:37:26.900Z,98845.90
2023-05-14T07:39:54.159Z,98845.62
2023-05-14T07:42:34.472Z,98843.06
2023-05-14T07:45:03.719Z,98842.46
2023-05-14T07:47:31.250Z,98844.46
2023-05-14T07:49:58.846Z,98846.80
2023-05-14T07:52:26.107Z,98845.66
2023-05-14T07:54:53.469Z,98840.23
2023-05-14T07:57:21.650Z,98845.47
2023-05-14T07:59:49.217Z,98840.90
2023-05-14T08:02:17.278Z,98837.66
2023-05-14T08:04:45.154Z,98834.21
2023-05-14T08:07:12.413Z,98829.30
2023-05-14T08:09:39.672Z,98828.61
2023-05-14T08:12:07.835Z,98826.66
2023-05-14T08:14:35.109Z,98823.82
2023-05-14T08:17:02.987Z,98822.65
2023-05-14T08:19:30.246Z,98817.50
2023-05-14T08:21:57.312Z,98821.06
2023-05-14T08:24:24.559Z,98822.58
2023-05-14T08:26:52.023Z,98818.57
2023-05-14T08:29:19.275Z,98817.56
2023-05-14T08:31:46.940Z,98804.56
2023-05-14T08:34:14.102Z,98805.23
2023-05-14T08:36:41.258Z,98803.27
2023-05-14T08:39:08.725Z,98799.55
2023-05-14T08:41:37.195Z,98801.84
2023-05-14T08:44:14.097Z,98793.75
2023-05-14T08:46:41.752Z,98787.45
2023-05-14T08:49:33.166Z,98783.41
2023-05-14T08:52:00.207Z,98775.41
2023-05-14T08:54:28.486Z,98767.36
2023-05-14T08:56:55.735Z,98765.61
2023-05-14T08:59:22.998Z,98765.91
2023-05-14T09:01:53.668Z,98766.73
2023-05-14T09:04:23.775Z,98768.83
2023-05-14T09:06:55.815Z,98763.67
2023-05-14T09:09:23.609Z,98762.52
2023-05-14T09:11:52.707Z,98766.00
2023-05-14T09:14:20.678Z,98762.76
2023-05-14T09:16:49.452Z,98759.94
2023-05-14T09:19:20.592Z,98760.23
2023-05-14T09:21:49.560Z,98761.58
2023-05-14T09:24:24.553Z,98761.83
2023-05-14T09:26:56.913Z,98759.13
2023-05-14T09:29:28.369Z,98755.10
2023-05-14T09:31:57.403Z,98756.01
2023-05-14T09:34:25.690Z,98748.94
2023-05-14T09:36:59.562Z,98744.77
2023-05-14T09:39:27.448Z,98740.71
2023-05-14T09:41:55.811Z,98736.20
2023-05-14T09:44:23.703Z,98733.61
2023-05-14T09:46:51.799Z,98728.52
2023-05-14T09:49:19.829Z,98727.63
2023-05-14T09:51:48.728Z,98724.30
2023-05-14T09:54:15.782Z,98723.27
2023-05-14T09:56:44.066Z,98720.37
2023-05-14T09:59:11.152Z,98721.60
2023-05-14T10:01:39.088Z,98717.62
2023-05-14T10:04:07.862Z,98710.16
2023-05-14T10:06:39.761Z,98703.09
2023-05-14T10:09:16.311Z,98699.45
2023-05-14T10:11:49.196Z,98697.16
2023-05-14T10:14:52.691Z,98693.36
2023-05-14T10:17:21.827Z,98693.65
2023-05-14T10:19:58.249Z,98684.52
2023-05-14T10:22:31.448Z,98682.54
2023-05-14T10:24:59.936Z,98679.98
2023-05-14T10:27:27.106Z,98679.95
2023-05-14T10:29:55.671Z,98676.95
2023-05-14T10:32:25.417Z,98671.73
2023-05-14T10:34:53.471Z,98664.61
2023-05-14T10:37:25.556Z,98664.04
2023-05-14T10:40:01.506Z,98652.70
2023-05-14T10:42:40.108Z,98655.45
2023-05-14T10:45:08.871Z,98657.56
2023-05-14T10:47:42.034Z,98650.85
2023-05-14T10:50:12.161Z,98651.52
2023-05-14T10:52:43.062Z,98649.73
2023-05-14T10:55:14.917Z,98640.66
2023-05-14T10:57:44.636Z,98643.85
2023-05-14T11:00:13.628Z,98637.80
2023-05-14T11:02:42.765Z,98636.02
2023-05-14T11:05:13.577Z,98636.46
2023-05-14T11:07:46.330Z,98633.44
2023-05-14T11:10:18.850Z,98634.26
2023-05-14T11:12:48.659Z,98633.02
2023-05-14T11:15:21.441Z,98635.48
2023-05-14T11:17:49.938Z,98632.38
2023-05-14T11:20:18.263Z,98633.48
2023-05-14T11:22:47.624Z,98623.70
2023-05-14T11:25:15.202Z,98628.23
2023-05-14T11:27:43.866Z,98628.25
2023-05-14T11:30:18.446Z,98618.58
2023-05-14T11:32:47.593Z,98614.15
2023-05-14T11:35:15.970Z,98608.11
2023-05-14T11:37:43.738Z,98608.61
2023-05-14T11:40:16.289Z,98608.81
2023-05-14T11:42:43.384Z,98603.20
2023-05-14T11:45:12.163Z,98601.14
2023-05-14T11:47:41.614Z,98607.40
2023-05-14T11:50:21.587Z,98599.52
2023-05-14T11:52:50.314Z,98593.86
2023-05-14T11:55:17.924Z,98592.98
2023-05-14T11:57:45.353Z,98595.80
2023-05-14T12:00:16.377Z,98591.46
2023-05-14T12:02:43.857Z,98587.84
2023-05-14T12:05:12.839Z,98577.09
2023-05-14T12:07:41.337Z,98572.07
2023-05-14T12:10:08.794Z,98567.63
2023-05-14T12:12:39.425Z,98565.23
2023-05-14T12:15:13.609Z,98563.63
2023-05-14T12:17:40.717Z,98563.43
2023-05-14T12:20:13.189Z,98557.73
2023-05-14T12:22:42.181Z,98561.02
2023-05-14T12:25:13.526Z,98554.91
2023-05-14T12:27:44.267Z,98547.79
2023-05-14T12:30:21.172Z,98544.92
2023-05-14T12:32:52.200Z,98541.34
2023-05-14T12:35:21.760Z,98538.10
2023-05-14T12:37:48.743Z,98527.98
2023-05-14T12:40:15.925Z,98525.39
2023-05-14T12:42:43.169Z,98518.85
2023-05-14T12:45:11.258Z,98524.44
2023-05-14T12:47:38.522Z,98515.77
2023-05-14T12:50:06.675Z,98510.62
2023-05-14T12:52:38.631Z,98506.05
2023-05-14T12:55:08.553Z,98502.48
2023-05-14T12:57:36.131Z,98503.88
2023-05-14T13:00:07.494Z,98502.27
2023-05-14T13:02:43.054Z,98502.47
2023-05-14T13:05:12.305Z,98495.61
2023-05-14T13:07:39.890Z,98491.95
2023-05-14T13:10:07.654Z,98487.45
2023-05-14T13:12:34.716Z,98484.64
2023-05-14T13:15:01.865Z,98488.89
2023-05-14T13:17:29.151Z,98485.54
2023-05-14T13:19:56.272Z,98487.33
2023-05-14T13:22:23.220Z,98489.96
2023-05-14T13:24:50.488Z,98492.23
2023-05-14T13:27:17.450Z,98494.71
2023-05-14T13:29:44.729Z,98491.20
2023-05-14T13:32:11.847Z,98486.11
2023-05-14T13:34:39.002Z,98485.36
2023-05-14T13:37:06.878Z,98480.91
2023-05-14T13:39:33.933Z,98484.23
2023-05-14T13:42:01.194Z,98486.29
2023-05-14T13:44:28.959Z,98487.39
2023-05-14T13:46:56.318Z,98483.55
2023-05-14T13:49:23.477Z,98483.67
2023-05-14T13:51:50.738Z,98483.77
2023-05-14T13:54:17.885Z,98484.14
2023-05-14T13:56:45.059Z,98484.17
2023-05-14T13:59:12.209Z,98481.83
2023-05-14T14:01:39.492Z,98477.23
2023-05-14T14:04:06.516Z,98480.44
2023-05-14T14:06:33.665Z,98480.09
2023-05-14T14:09:00.927Z,98480.08
2023-05-14T14:11:28.248Z,98473.13
2023-05-14T14:13:55.349Z,98469.39
2023-05-14T14:16:22.543Z,98465.15
2023-05-14T14:18:49.898Z,98461.90
2023-05-14T14:21:17.620Z,98464.95
2023-05-14T14:23:48.079Z,98461.88
2023-05-14T14:26:15.308Z,98455.60
2023-05-14T14:28:42.568Z,98457.73
2023-05-14T14:31:10.455Z,98456.83
2023-05-14T14:33:37.708Z,98458.05
2023-05-14T14:36:05.575Z,98456.67
2023-05-14T14:38:32.646Z,98453.24
2023-05-14T14:41:02.564Z,98450.49
2023-05-14T14:43:29.603Z,98448.69
2023-05-14T14:45:57.325Z,98448.22
2023-05-14T14:48:27.429Z,98449.64
2023-05-14T14:50:55.151Z,98446.59
2023-05-14T14:53:23.556Z,98438.85
2023-05-14T14:55:51.038Z,98435.56
2023-05-14T14:58:19.898Z,98429.48
2023-05-14T15:00:47.905Z,98427.40
2023-05-14T15:03:15.392Z,98423.10
2023-05-14T15:05:42.713Z,98421.29
2023-05-14T15:08:10.164Z,98421.00
2023-05-14T15:10:37.924Z,98416.45
2023-05-14T15:13:06.417Z,98416.83
2023-05-14T15:15:34.816Z,98414.83
2023-05-14T15:18:03.348Z,98410.36
2023-05-14T15:20:30.759Z,98404.61
2023-05-14T15:22:57.805Z,98403.14
2023-05-14T15:25:26.971Z,98403.59
2023-05-14T15:27:54.576Z,98404.70
2023-05-14T15:30:21.725Z,98410.41
2023-05-14T15:32:49.352Z,98407.89
2023-05-14T15:35:16.663Z,98407.81
2023-05-14T15:37:44.829Z,98406.46
2023-05-14T15:40:12.705Z,98402.91
2023-05-14T15:42:41.697Z,98403.84
2023-05-14T15:45:11.782Z,98414.73
2023-05-14T15:47:40.115Z,98413.02
2023-05-14T15:50:08.077Z,98416.86
2023-05-14T15:52:38.921Z,98411.89
2023-05-14T15:55:06.544Z,98422.38
2023-05-14T15:57:34.425Z,98431.71
2023-05-14T16:00:09.431Z,98436.52
2023-05-14T16:02:39.811Z,98438.86
2023-05-14T16:05:08.068Z,98429.69
2023-05-14T16:07:35.872Z,98417.64
2023-05-14T16:10:03.247Z,98408.55
2023-05-14T16:12:30.412Z,98399.98
2023-05-14T16:14:57.619Z,98398.63
2023-05-14T16:17:26.953Z,98393.55
2023-05-14T16:19:56.056Z,98392.12
2023-05-14T16:22:23.610Z,98400.02
2023-05-14T16:24:50.869Z,98401.44
2023-05-14T16:27:20.899Z,98398.90
2023-05-14T16:29:48.143Z,98397.04
2023-05-14T16:32:15.556Z,98402.59
2023-05-14T16:34:49.112Z,98402.14
2023-05-14T16:37:20.061Z,98397.05
2023-05-14T16:39:48.224Z,98394.04
2023-05-14T16:42:15.182Z,98394.75
2023-05-14T16:44:42.329Z,98397.36
2023-05-14T16:47:10.010Z,98398.70
2023-05-14T16:49:37.289Z,98404.48
2023-05-14T16:52:05.028Z,98409.20
2023-05-14T16:54:32.078Z,98414.23
2023-05-14T16:56:59.225Z,98411.95
2023-05-14T16:59:26.384Z,98409.15
2023-05-14T17:01:53.642Z,98415.94
2023-05-14T17:04:20.947Z,98417.58
2023-05-14T17:06:48.159Z,98413.55
2023-05-14T17:09:16.136Z,98410.73
2023-05-14T17:11:44.118Z,98408.55
2023-05-14T17:14:10.543Z,98411.42
2023-05-14T17:16:40.058Z,98414.98
2023-05-14T17:19:06.528Z,98416.52
2023-05-14T17:21:33.739Z,98421.27
2023-05-14T17:24:00.887Z,98434.55
2023-05-14T17:26:27.856Z,98432.76
2023-05-14T17:28:55.221Z,98437.05
2023-05-14T17:31:22.722Z,98439.56
2023-05-14T17:33:50.244Z,98440.33
2023-05-14T17:36:17.296Z,98431.61
2023-05-14T17:38:44.469Z,98423.63
2023-05-14T17:41:11.915Z,98412.27
2023-05-14T17:43:38.969Z,98399.73
2023-05-14T17:46:06.758Z,98396.00
2023-05-14T17:48:33.860Z,98395.53
2023-05-14T17:51:00.962Z,98391.45
2023-05-14T17:53:28.106Z,98383.80
2023-05-14T17:55:55.219Z,98379.14
2023-05-14T17:58:22.429Z,98381.45
2023-05-14T18:00:49.426Z,98382.25
2023-05-14T18:03:17.144Z,98378.79
2023-05-14T18:05:44.312Z,98375.06
2023-05-14T18:08:11.778Z,98377.35
2023-05-14T18:10:40.253Z,98377.80
2023-05-14T18:13:07.522Z,98380.28
2023-05-14T18:15:36.271Z,98389.08
2023-05-14T18:18:03.572Z,98391.92
2023-05-14T18:20:31.173Z,98399.36
2023-05-14T18:22:59.372Z,98405.75
2023-05-14T18:25:26.782Z,98410.92
2023-05-14T18:27:54.010Z,98414.45
2023-05-14T18:30:21.187Z,98409.81
2023-05-14T18:32:48.288Z,98403.57
2023-05-14T18:35:15.310Z,98403.73
2023-05-14T18:37:42.347Z,98406.91
2023-05-14T18:40:10.666Z,98408.19
2023-05-14T18:42:37.784Z,98409.45
2023-05-14T18:45:05.352Z,98408.13
2023-05-14T18:47:33.132Z,98412.75
2023-05-14T18:50:01.546Z,98409.91
2023-05-14T18:52:28.968Z,98409.78
2023-05-14T18:54:56.121Z,98409.41
2023-05-14T18:57:23.702Z,98406.96
2023-05-14T18:59:50.967Z,98406.09
2023-05-14T19:02:18.172Z,98404.65
2023-05-14T19:04:52.427Z,98403.44
2023-05-14T19:07:20.942Z,98403.65
2023-05-14T19:09:48.475Z,98400.38
2023-05-14T19:12:15.936Z,98392.89
2023-05-14T19:14:43.213Z,98386.08
2023-05-14T19:17:10.800Z,98379.70
2023-05-14T19:19:38.830Z,98379.76
2023-05-14T19:22:06.622Z,98382.01
2023-05-14T19:24:33.554Z,98379.98
2023-05-14T19:27:01.124Z,98377.10
2023-05-14T19:29:28.384Z,98372.70
2023-05-14T19:31:55.479Z,98372.65
2023-05-14T19:34:22.592Z,98377.83
2023-05-14T19:36:50.245Z,98373.24
2023-05-14T19:39:17.308Z,98366.92
2023-05-14T19:41:44.552Z,98364.30
2023-05-14T19:44:11.608Z,98361.65
2023-05-14T19:46:38.909Z,98364.88
2023-05-14T19:49:06.025Z,98365.78
2023-05-14T19:51:33.076Z,98364.98
2023-05-14T19:54:00.741Z,98368.42
2023-05-14T19:56:28.046Z,98367.70
2023-05-14T19:58:55.157Z,98360.09
2023-05-14T20:01:22.431Z,98359.04
2023-05-14T20:03:49.476Z,98351.45
2023-05-14T20:06:16.950Z,98347.18
2023-05-14T20:08:47.085Z,98349.67
2023-05-14T20:11:15.237Z,98351.02
2023-05-14T20:13:42.380Z,98347.22
2023-05-14T20:16:09.755Z,98343.03
2023-05-14T20:18:37.118Z,98334.73
2023-05-14T20:21:05.096Z,98328.41
2023-05-14T20:23:32.350Z,98329.36
2023-05-14T20:26:01.234Z,98334.08
2023-05-14T20:28:28.397Z,98331.98
2023-05-14T20:30:58.365Z,98335.48
2023-05-14T20:33:26.592Z,98329.39
2023-05-14T20:35:53.861Z,98332.05
2023-05-14T20:38:21.441Z,98332.09
2023-05-14T20:40:48.680Z,98325.41
2023-05-14T20:43:15.932Z,98322.33
2023-05-14T20:45:42.854Z,98314.23
2023-05-14T20:48:11.701Z,98316.95
2023-05-14T20:50:38.946Z,98305.31
2023-05-14T20:53:06.095Z,98297.70
2023-05-14T20:55:33.454Z,98288.86
2023-05-14T20:58:00.506Z,98285.98
2023-05-14T21:00:27.556Z,98286.48
2023-05-14T21:02:54.633Z,98280.73
2023-05-14T21:05:21.972Z,98279.90
2023-05-14T21:07:48.921Z,98278.80
2023-05-14T21:10:16.691Z,98279.99
2023-05-14T21:12:44.902Z,98274.83
2023-05-14T21:15:12.353Z,98277.75
2023-05-14T21:17:39.758Z,98281.77
2023-05-14T21:20:07.839Z,98291.52
2023-05-14T21:22:35.139Z,98291.08
2023-05-14T21:25:02.494Z,98292.75
2023-05-14T21:27:29.623Z,98283.75
2023-05-14T21:29:56.694Z,98278.82
2023-05-14T21:32:23.928Z,98273.39
2023-05-14T21:34:51.230Z,98269.66
2023-05-14T21:37:18.367Z,98261.84
2023-05-14T21:39:45.524Z,98263.96
2023-05-14T21:42:12.780Z,98265.90
2023-05-14T21:44:39.842Z,98266.92
2023-05-14T21:47:07.301Z,98263.50
2023-05-14T21:49:35.076Z,98261.42
2023-05-14T21:52:02.322Z,98258.15
2023-05-14T21:54:29.576Z,98259.77
2023-05-14T21:56:56.954Z,98267.74
2023-05-14T21:59:24.308Z,98274.36
2023-05-14T22:02:06.260Z,98280.49
2023-05-14T22:04:34.779Z,98277.02
2023-05-14T22:07:01.832Z,98263.62
2023-05-14T22:09:29.918Z,98253.10
2023-05-14T22:11:57.887Z,98250.70
2023-05-14T22:14:26.725Z,98252.40
2023-05-14T22:16:53.933Z,98251.72
2023-05-14T22:19:21.813Z,98256.64
2023-05-14T22:21:48.757Z,98256.47
2023-05-14T22:24:15.914Z,98251.59
2023-05-14T22:26:43.479Z,98251.71
2023-05-14T22:29:10.739Z,98249.38
2023-05-14T22:31:38.282Z,98251.55
2023-05-14T22:34:05.355Z,98250.52
2023-05-14T22:36:32.509Z,98251.02
2023-05-14T22:38:59.798Z,98251.95
2023-05-14T22:41:27.230Z,98254.16
2023-05-14T22:43:54.177Z,98257.15
2023-05-14T22:46:21.388Z,98248.86
2023-05-14T22:48:48.800Z,98244.54
2023-05-14T22:51:16.121Z,98236.80
2023-05-14T22:53:43.218Z,98230.13
2023-05-14T22:56:10.572Z,98223.16
2023-05-14T22:58:37.635Z,98215.89
2023-05-14T23:01:04.817Z,98215.66
2023-05-14T23:03:31.885Z,98214.42
2023-05-14T23:05:58.977Z,98213.98
2023-05-14T23:08:25.953Z,98212.20
2023-05-14T23:10:53.305Z,98209.20
2023-05-14T23:13:20.657Z,98205.14
2023-05-14T23:15:48.329Z,98204.55
2023-05-14T23:18:15.577Z,98202.93
2023-05-14T23:20:43.257Z,98202.14
2023-05-14T23:23:10.719Z,98205.67
2023-05-14T23:25:37.798Z,98206.75
2023-05-14T23:28:05.125Z,98210.73
2023-05-14T23:30:32.290Z,98219.37
2023-05-14T23:32:59.741Z,98224.03
2023-05-14T23:35:27.455Z,98230.58
2023-05-14T23:37:54.771Z,98232.00
2023-05-14T23:40:21.828Z,98224.28
2023-05-14T23:42:48.988Z,98225.17
2023-05-14T23:45:16.614Z,98222.77
2023-05-14T23:47:44.081Z,98216.73
2023-05-14T23:50:11.174Z,98214.91
2023-05-14T23:52:38.322Z,98209.38
2023-05-14T23:55:06.193Z,98206.91
2023-05-14T23:57:33.446Z,98206.02
